Airfield :
LOGIN :

Register | Disclaimer

   EN    FR    IT 

 










Legend :    VFR   Marginal VFR   IFR   Intensive IFR   Very Intensive IFR
Visi :
Ceiling :
>= 8 km
>= 3000ft
5 to 8 km
1000 to 3000 ft
1500m to 5 km
500 to 1000 ft
800 to 1500m
200 to 500 ft
< 800m
< 200 ft
Symbols :   Thunderstorms  Fog  Heavy snow  Heavy precipitations  Wind > 20 kt
SIGMETs :     Misc.  Thunderstorms  Icing  Turbulence  Mountain Waves  Volcanic Ashes






- Airport Elevation : 140 ft


ESTL - Ljungbyhed

CURRENT METAR :
  • 240320Z AUTO 20007KT 5000 RA FEW000/// SCT007/// BKN008/// 11/11 Q1004

EXPIRED METARs :
  • 240250Z AUTO 20009KT 7000 -RA OVC006/// 11/11 Q1005
  • 240220Z AUTO 20008KT 9999 FEW006/// SCT008/// OVC009/// 11/11 Q1005
  • 240150Z AUTO 18007KT 9999 FEW006/// SCT008/// BKN011/// 11/11 Q1005 REDZ
  • 240120Z AUTO 19007KT 9999 DZ BKN051/// 10/10 Q1005
  • 240050Z AUTO 19008KT 7000 -RA FEW041/// 10/10 Q1006

Expired Forecast.



MET'MAP, your aeronautical weather chart ! - Copyright ORBIFLY December 2007 - Disclaimer

ORBIFLY MET'MAP TEAM :

Programming & Development : Alexandra Zaïnal
Concept & original design : Baudouin d'Aumeries
Assistance for programming : Marc-Olivier Méhu
Technical & hardware support : Manuel Goepfert

Contact : metmap@orbifly.com




SOURCES & CREDITS :

   NOAA